This is the latest recevied weather packets stored in our database for station/object KE2A-13. If no packets are shown the sender has not sent any weather packets the latest 10 day(s).
| Time | Temp. | Humidity | Pressure | Rain* | Wind** | Luminosity | Snow |
|---|---|---|---|---|---|---|---|
| 1777387500 | 17.22° C | 47% | 1021.1 hPa | - | - | - | - |
| 1777386600 | 16.67° C | 49% | 1021.1 hPa | - | - | - | - |
| 1777385700 | 16.11° C | 54% | 1021.2 hPa | - | - | - | - |
| 1777384800 | 15.56° C | 55% | 1021.3 hPa | - | - | - | - |
| 1777383900 | 15° C | 57% | 1021.4 hPa | - | - | - | - |
| 1777383000 | 14.44° C | 57% | 1021.3 hPa | - | - | - | - |
| 1777382100 | 13.89° C | 60% | 1021.4 hPa | - | - | - | - |
| 1777381200 | 13.33° C | 61% | 1021.2 hPa | - | - | - | - |
| 1777380300 | 12.78° C | 65% | 1021.3 hPa | - | - | - | - |
| 1777379400 | 12.78° C | 70% | 1021.4 hPa | - | - | - | - |
| 1777378500 | 11.67° C | 73% | 1021.6 hPa | - | - | - | - |
| 1777377600 | 10.56° C | 80% | 1021.6 hPa | - | - | - | - |
| 1777376700 | 8.89° C | 86% | 1021.8 hPa | - | - | - | - |
| 1777375800 | 7.78° C | 91% | 1021.7 hPa | - | - | - | - |
| 1777374900 | 7.22° C | 96% | 1021.6 hPa | - | - | - | - |
| 1777374000 | 6.11° C | 98% | 1021.4 hPa | - | - | - | - |
| 1777373100 | 5° C | 99% | 1021.4 hPa | - | - | - | - |
| 1777372200 | 4.44° C | 98% | 1021.5 hPa | - | - | - | - |
| 1777371300 | 4.44° C | 98% | 1021.7 hPa | - | - | - | - |
| 1777370400 | 4.44° C | 98% | 1021.7 hPa | - | - | - | - |
| 1777369500 | 5° C | 98% | 1021.8 hPa | - | - | - | - |
| 1777368600 | 5° C | 98% | 1021.8 hPa | - | - | - | - |
| 1777368153 | 5° C | 98% | 1021.8 hPa | - | - | - | - |
| 1777368120 | 5° C | 98% | 1021.8 hPa | - | - | - | - |
| 1777368099 | 5° C | 98% | 1021.8 hPa | - | - | - | - |
* Rain since midnight (hover to see other rain measurements)
** Current wind speed in m/s (hover to see current wind gust speed)